Time;durP1;ratioP1;P1;durP2;ratioP2;P2;SDS_P1;SDS_P2;PMS_P1;PMS_P2;Temp;Humidity;BMP_temperature;BMP_pressure;BME280_temperature;BME280_humidity;BME280_pressure;Samples;Min_cycle;Max_cycle;Signal;HPM_P1;HPM_P2
2024/01/25 00:01:02;;;;;;;2.20;1.20;;;8.30;99.90;;;;;;5048978;28;20620;-66
2024/01/25 00:03:31;;;;;;;1.80;0.93;;;8.30;99.90;;;;;;5049259;28;20620;-65
2024/01/25 00:06:00;;;;;;;3.20;0.93;;;8.30;99.90;;;;;;5025971;28;20192;-65
2024/01/25 00:08:27;;;;;;;3.03;0.90;;;8.30;99.90;;;;;;5049664;28;20201;-65
2024/01/25 00:10:54;;;;;;;2.67;1.03;;;8.30;99.90;;;;;;5044975;28;20203;-66
2024/01/25 00:13:21;;;;;;;3.93;1.00;;;8.30;99.90;;;;;;5049985;28;20289;-66
2024/01/25 00:15:48;;;;;;;4.30;1.07;;;8.30;99.90;;;;;;5030856;28;20304;-66
2024/01/25 00:18:15;;;;;;;2.87;1.00;;;8.30;99.90;;;;;;5049220;28;20209;-66
2024/01/25 00:20:43;;;;;;;5.67;1.30;;;8.30;99.90;;;;;;5046594;28;20228;-66
2024/01/25 00:23:10;;;;;;;1.90;0.83;;;8.30;99.90;;;;;;5049818;28;20205;-65
2024/01/25 00:25:37;;;;;;;2.07;0.90;;;8.30;99.90;;;;;;5048056;28;20222;-66
2024/01/25 00:28:05;;;;;;;1.23;0.73;;;8.30;99.90;;;;;;5047626;28;20199;-66
2024/01/25 00:30:32;;;;;;;1.03;0.70;;;8.30;99.90;;;;;;5033030;28;20252;-65
2024/01/25 00:32:59;;;;;;;4.53;1.27;;;8.30;99.90;;;;;;5032301;28;20240;-65
2024/01/25 00:35:27;;;;;;;3.60;1.00;;;8.30;99.90;;;;;;5051653;28;20189;-66
2024/01/25 00:37:56;;;;;;;2.50;0.90;;;8.30;99.90;;;;;;5053864;28;20198;-66
2024/01/25 00:40:23;;;;;;;3.77;1.10;;;8.30;99.90;;;;;;5038124;28;20636;-66
2024/01/25 00:42:53;;;;;;;2.57;1.00;;;8.30;99.90;;;;;;5053526;28;20197;-66
2024/01/25 00:45:20;;;;;;;1.43;0.73;;;8.30;99.90;;;;;;5033068;28;20311;-66
2024/01/25 00:47:48;;;;;;;3.27;1.33;;;8.30;99.90;;;;;;5034374;28;20290;-66
2024/01/25 00:50:17;;;;;;;2.53;1.13;;;8.30;99.90;;;;;;5050544;28;20799;-66
2024/01/25 00:52:44;;;;;;;2.30;0.90;;;8.30;99.90;;;;;;5053348;28;20616;-65
2024/01/25 00:55:15;;;;;;;1.77;0.83;;;8.30;99.90;;;;;;5052551;28;20196;-65
2024/01/25 00:57:43;;;;;;;2.23;1.00;;;8.30;99.90;;;;;;5051754;28;20229;-65
2024/01/25 01:00:11;;;;;;;3.90;1.10;;;8.30;99.90;;;;;;5050475;28;20211;-65
2024/01/25 01:02:43;;;;;;;2.13;1.07;;;8.30;99.90;;;;;;5052920;28;20293;-65
2024/01/25 01:05:11;;;;;;;6.47;1.33;;;8.30;99.90;;;;;;5049035;28;20217;-65
2024/01/25 01:07:40;;;;;;;2.93;1.20;;;8.30;99.90;;;;;;5034638;28;20197;-64
2024/01/25 01:10:09;;;;;;;3.60;1.30;;;8.30;99.90;;;;;;5051411;28;20638;-65
2024/01/25 01:12:37;;;;;;;4.00;0.97;;;8.30;99.90;;;;;;5052944;28;20281;-65
2024/01/25 01:15:06;;;;;;;2.07;0.93;;;8.30;99.90;;;;;;5052544;28;20670;-67
2024/01/25 01:17:33;;;;;;;6.27;1.47;;;8.30;99.90;;;;;;5052310;28;20277;-66
2024/01/25 01:20:00;;;;;;;7.00;1.63;;;8.30;99.90;;;;;;5044046;28;20210;-65
2024/01/25 01:22:28;;;;;;;3.97;1.30;;;8.30;99.90;;;;;;5047908;28;20225;-66
2024/01/25 01:24:55;;;;;;;6.33;1.23;;;8.30;99.90;;;;;;5051463;28;20195;-65
2024/01/25 01:27:22;;;;;;;3.33;0.93;;;8.20;99.90;;;;;;5052591;28;20198;-66
2024/01/25 01:29:51;;;;;;;7.80;1.70;;;8.20;99.90;;;;;;5050631;28;20554;-65
2024/01/25 01:32:18;;;;;;;8.77;1.90;;;8.20;99.90;;;;;;5052227;28;20222;-65
2024/01/25 01:34:45;;;;;;;8.40;2.17;;;8.20;99.90;;;;;;5051334;28;20240;-65
2024/01/25 01:37:12;;;;;;;8.10;1.97;;;8.20;99.90;;;;;;5051179;28;20208;-65
2024/01/25 01:39:39;;;;;;;8.03;2.23;;;8.20;99.90;;;;;;5042860;28;20236;-65
2024/01/25 01:42:06;;;;;;;11.97;2.20;;;8.20;99.90;;;;;;5052636;28;20226;-66
2024/01/25 01:44:33;;;;;;;11.63;2.40;;;8.20;99.90;;;;;;5048641;28;20364;-65
2024/01/25 01:47:02;;;;;;;8.70;2.33;;;8.20;99.90;;;;;;5051627;28;20197;-65
2024/01/25 01:49:29;;;;;;;5.93;1.77;;;8.20;99.90;;;;;;5050579;28;20186;-66
2024/01/25 01:51:56;;;;;;;8.03;2.20;;;8.20;99.90;;;;;;5050595;28;20194;-66
2024/01/25 01:54:24;;;;;;;12.60;2.63;;;8.20;99.90;;;;;;5052002;28;20657;-66
2024/01/25 01:56:52;;;;;;;10.23;2.50;;;8.20;99.90;;;;;;5045745;28;20208;-65
2024/01/25 01:59:20;;;;;;;12.47;2.43;;;8.20;99.90;;;;;;5051356;28;20253;-66
2024/01/25 02:01:47;;;;;;;14.40;2.87;;;8.20;99.90;;;;;;5050324;28;20743;-66
2024/01/25 02:04:15;;;;;;;7.80;2.17;;;8.20;99.90;;;;;;5052116;28;20217;-65
2024/01/25 02:06:44;;;;;;;11.40;2.63;;;8.10;99.90;;;;;;5047476;28;20552;-66
2024/01/25 02:09:11;;;;;;;8.63;2.40;;;8.10;99.90;;;;;;5033972;28;20208;-66
2024/01/25 02:11:40;;;;;;;8.83;1.90;;;8.10;99.90;;;;;;5048931;28;20225;-66
2024/01/25 02:14:11;;;;;;;8.23;2.10;;;8.10;99.90;;;;;;5051689;28;20255;-66
2024/01/25 02:16:38;;;;;;;10.87;2.40;;;8.10;99.90;;;;;;5032806;28;20202;-66
2024/01/25 02:19:05;;;;;;;7.70;1.87;;;8.10;99.90;;;;;;5049443;28;20186;-66
2024/01/25 02:21:34;;;;;;;4.23;1.80;;;8.10;99.90;;;;;;5048728;28;20221;-66
2024/01/25 02:24:02;;;;;;;9.10;1.93;;;8.10;99.90;;;;;;5051069;28;20193;-66
2024/01/25 02:26:29;;;;;;;7.33;1.90;;;8.10;99.90;;;;;;5048611;28;20319;-67
2024/01/25 02:28:56;;;;;;;9.13;1.73;;;8.10;99.90;;;;;;5044532;28;20615;-66
2024/01/25 02:31:23;;;;;;;9.70;1.93;;;8.10;99.90;;;;;;5043380;28;20190;-65
2024/01/25 02:33:50;;;;;;;6.70;1.80;;;8.10;99.90;;;;;;5049939;28;20740;-65
2024/01/25 02:36:17;;;;;;;6.67;1.67;;;8.00;99.90;;;;;;5047570;28;20276;-66
2024/01/25 02:38:44;;;;;;;11.47;1.77;;;8.00;99.90;;;;;;5050985;28;20198;-66
2024/01/25 02:41:13;;;;;;;4.67;1.50;;;8.00;99.90;;;;;;5050100;28;20212;-66
2024/01/25 02:43:40;;;;;;;5.80;1.73;;;8.10;99.90;;;;;;5048383;28;20221;-66
2024/01/25 02:46:08;;;;;;;10.70;1.80;;;8.10;99.90;;;;;;5048164;28;20194;-66
2024/01/25 02:48:35;;;;;;;5.73;1.50;;;8.10;99.90;;;;;;5049412;28;20200;-66
2024/01/25 02:51:02;;;;;;;5.70;1.70;;;8.00;99.90;;;;;;5049221;28;20285;-66
2024/01/25 02:53:29;;;;;;;5.50;1.53;;;8.00;99.90;;;;;;5051159;28;20233;-65
2024/01/25 02:55:56;;;;;;;8.30;1.83;;;8.00;99.90;;;;;;5048137;28;20255;-66
2024/01/25 02:58:25;;;;;;;5.03;1.50;;;8.10;99.90;;;;;;5033474;28;20202;-66
2024/01/25 03:00:52;;;;;;;5.07;1.80;;;8.00;99.90;;;;;;5050299;28;20218;-66
2024/01/25 03:03:19;;;;;;;5.63;1.53;;;8.00;99.90;;;;;;5048504;28;20247;-66
2024/01/25 03:05:46;;;;;;;7.10;1.50;;;8.00;99.90;;;;;;5047602;28;20197;-66
2024/01/25 03:08:13;;;;;;;7.60;2.00;;;8.10;99.90;;;;;;5046913;28;20204;-66
2024/01/25 03:10:40;;;;;;;10.47;2.33;;;8.10;99.90;;;;;;5031813;28;20203;-66
2024/01/25 03:13:06;;;;;;;5.00;1.70;;;8.10;99.90;;;;;;5049853;28;20285;-66
2024/01/25 03:15:35;;;;;;;7.60;1.80;;;8.10;99.90;;;;;;5048029;28;20224;-66
2024/01/25 03:18:01;;;;;;;3.70;1.33;;;8.10;99.90;;;;;;5049650;28;20190;-67
2024/01/25 03:20:28;;;;;;;8.80;1.60;;;8.10;99.90;;;;;;5048599;28;20214;-66
2024/01/25 03:22:55;;;;;;;4.47;1.30;;;8.20;99.90;;;;;;5051218;28;20550;-66
2024/01/25 03:25:22;;;;;;;7.60;1.77;;;8.10;99.90;;;;;;5049573;28;20255;-66
2024/01/25 03:27:49;;;;;;;3.93;1.47;;;8.20;99.90;;;;;;5047123;28;20191;-67
2024/01/25 03:30:17;;;;;;;4.50;1.37;;;8.20;99.90;;;;;;5049978;28;20186;-66
2024/01/25 03:32:47;;;;;;;5.70;1.53;;;8.20;99.90;;;;;;5043756;28;20566;-66
2024/01/25 03:35:14;;;;;;;3.80;1.53;;;8.20;99.90;;;;;;5048619;28;20194;-66
2024/01/25 03:37:41;;;;;;;7.20;1.63;;;8.30;99.90;;;;;;5048657;28;20206;-66
2024/01/25 03:40:09;;;;;;;5.23;1.40;;;8.30;99.90;;;;;;5048943;28;20767;-65
2024/01/25 03:42:36;;;;;;;6.37;1.40;;;8.30;99.90;;;;;;5048140;28;20197;-66
2024/01/25 03:45:03;;;;;;;5.17;1.33;;;8.30;99.90;;;;;;5049861;28;20665;-66
2024/01/25 03:47:30;;;;;;;3.33;1.13;;;8.30;99.90;;;;;;5046197;28;20744;-66
2024/01/25 03:49:59;;;;;;;5.17;1.40;;;8.30;99.90;;;;;;5048654;28;20567;-66
2024/01/25 03:52:29;;;;;;;1.93;0.90;;;8.30;99.90;;;;;;5047299;28;20662;-65
2024/01/25 03:54:57;;;;;;;5.50;1.70;;;8.30;99.90;;;;;;5049061;28;20218;-66
2024/01/25 03:57:24;;;;;;;5.33;1.60;;;8.30;99.90;;;;;;5048597;28;20564;-65
2024/01/25 03:59:50;;;;;;;5.63;1.50;;;8.40;99.90;;;;;;5048082;28;20496;-65
2024/01/25 04:02:18;;;;;;;7.60;1.73;;;8.40;99.90;;;;;;5047955;28;20676;-66
2024/01/25 04:04:45;;;;;;;3.00;1.20;;;8.30;99.90;;;;;;5030354;28;20625;-66
2024/01/25 04:07:13;;;;;;;3.50;1.20;;;8.40;99.90;;;;;;5044902;28;20219;-66
2024/01/25 04:09:41;;;;;;;4.50;1.30;;;8.40;99.90;;;;;;5046908;28;20730;-66
2024/01/25 04:12:08;;;;;;;2.17;1.13;;;8.40;99.90;;;;;;5049610;28;20201;-66
2024/01/25 04:14:35;;;;;;;5.03;1.43;;;8.30;99.90;;;;;;5049740;28;20226;-66
2024/01/25 04:17:02;;;;;;;3.10;1.07;;;8.40;99.90;;;;;;5028926;28;20794;-67
2024/01/25 04:19:29;;;;;;;3.07;1.03;;;8.30;99.90;;;;;;5048900;28;20194;-66
2024/01/25 04:21:56;;;;;;;4.37;1.27;;;8.30;99.90;;;;;;5048383;28;20217;-65
2024/01/25 04:24:24;;;;;;;4.10;1.20;;;8.30;99.90;;;;;;5049114;28;20220;-65
2024/01/25 04:26:51;;;;;;;2.97;1.10;;;8.30;99.90;;;;;;5047369;28;20279;-66
2024/01/25 04:29:18;;;;;;;2.87;1.13;;;8.30;99.90;;;;;;5049597;28;20227;-66
2024/01/25 04:31:48;;;;;;;3.83;1.33;;;8.30;99.90;;;;;;5046595;28;20190;-65
2024/01/25 04:34:15;;;;;;;3.20;1.00;;;8.30;99.90;;;;;;5049049;28;20197;-66
2024/01/25 04:36:43;;;;;;;7.33;1.50;;;8.30;99.90;;;;;;5046236;28;20712;-65
2024/01/25 04:39:10;;;;;;;3.53;0.90;;;8.30;99.90;;;;;;5047721;28;20194;-65
2024/01/25 04:41:38;;;;;;;5.53;1.37;;;8.30;99.90;;;;;;5048563;28;20209;-65
2024/01/25 04:44:05;;;;;;;5.70;1.50;;;8.40;99.90;;;;;;5033572;28;20828;-65
2024/01/25 04:46:36;;;;;;;7.13;1.60;;;8.40;99.90;;;;;;5046982;28;20206;-65
2024/01/25 04:49:03;;;;;;;5.67;1.60;;;8.40;99.90;;;;;;5048732;28;20687;-65
2024/01/25 04:51:30;;;;;;;6.07;1.23;;;8.40;99.90;;;;;;5047168;28;20645;-65
2024/01/25 04:53:57;;;;;;;4.53;1.00;;;8.40;99.90;;;;;;5031865;28;20206;-65
2024/01/25 04:56:24;;;;;;;6.53;1.60;;;8.40;99.90;;;;;;5047209;28;20294;-66
2024/01/25 04:58:53;;;;;;;4.47;1.40;;;8.40;99.90;;;;;;5049283;28;20298;-65
2024/01/25 05:01:20;;;;;;;7.47;1.40;;;8.40;99.90;;;;;;5046238;28;20229;-64
2024/01/25 05:03:46;;;;;;;3.57;1.10;;;8.40;99.90;;;;;;5047713;28;20561;-65
2024/01/25 05:06:14;;;;;;;3.70;1.20;;;8.40;99.90;;;;;;5041474;28;20277;-65
2024/01/25 05:08:43;;;;;;;3.60;1.20;;;8.40;99.90;;;;;;5048384;28;20198;-65
2024/01/25 05:11:10;;;;;;;4.47;1.33;;;8.40;99.90;;;;;;5042904;28;20197;-65
2024/01/25 05:13:37;;;;;;;4.90;1.10;;;8.40;99.90;;;;;;5049046;28;20289;-65
2024/01/25 05:16:05;;;;;;;1.43;0.77;;;8.40;99.90;;;;;;5048158;28;20198;-65
2024/01/25 05:18:32;;;;;;;4.30;1.20;;;8.40;99.90;;;;;;5047719;28;20553;-65
2024/01/25 05:20:59;;;;;;;2.77;1.07;;;8.40;99.90;;;;;;5050868;28;20492;-67
2024/01/25 05:23:26;;;;;;;2.73;1.10;;;8.40;99.90;;;;;;5052038;28;20259;-66
2024/01/25 05:25:54;;;;;;;3.30;1.03;;;8.40;99.90;;;;;;5051873;28;20247;-66
2024/01/25 05:28:21;;;;;;;5.07;1.33;;;8.40;99.90;;;;;;5050579;28;20200;-66
2024/01/25 05:30:47;;;;;;;4.70;1.37;;;8.40;99.90;;;;;;5037687;28;20588;-65
2024/01/25 05:33:17;;;;;;;4.00;1.40;;;8.40;99.90;;;;;;5050927;28;20194;-65
2024/01/25 05:35:44;;;;;;;2.50;1.07;;;8.40;99.90;;;;;;5049858;28;20220;-65
2024/01/25 05:38:11;;;;;;;1.63;1.10;;;8.40;99.90;;;;;;5051465;28;20198;-65
2024/01/25 05:40:38;;;;;;;1.80;1.10;;;8.40;99.90;;;;;;5051547;28;20222;-65
2024/01/25 05:43:05;;;;;;;6.30;1.30;;;8.40;99.90;;;;;;5051917;28;20221;-65
2024/01/25 05:45:33;;;;;;;2.37;1.20;;;8.40;99.90;;;;;;5049698;28;20225;-66
2024/01/25 05:48:00;;;;;;;4.20;1.17;;;8.40;99.90;;;;;;5047405;28;20285;-66
2024/01/25 05:50:29;;;;;;;3.63;1.30;;;8.30;99.90;;;;;;5050374;28;20194;-66
2024/01/25 05:52:56;;;;;;;3.63;1.03;;;8.40;99.90;;;;;;5051611;28;20243;-66
2024/01/25 05:55:23;;;;;;;3.33;1.30;;;8.40;99.90;;;;;;5049928;28;20707;-66
2024/01/25 05:57:50;;;;;;;2.63;1.03;;;8.30;99.90;;;;;;5050380;28;20239;-66
2024/01/25 06:00:17;;;;;;;3.20;0.90;;;8.40;99.90;;;;;;5048947;28;20189;-66
2024/01/25 06:02:46;;;;;;;1.23;0.77;;;8.40;99.90;;;;;;5048457;28;20265;-66
2024/01/25 06:05:13;;;;;;;1.80;1.00;;;8.40;99.90;;;;;;5047451;28;20218;-66
2024/01/25 06:07:41;;;;;;;3.47;0.97;;;8.40;99.90;;;;;;5050884;28;20190;-66
2024/01/25 06:10:09;;;;;;;2.60;0.80;;;8.40;99.90;;;;;;5033998;28;20284;-66
2024/01/25 06:12:36;;;;;;;2.90;1.03;;;8.40;99.90;;;;;;5049504;28;20285;-66
2024/01/25 06:15:04;;;;;;;3.67;1.23;;;8.40;99.90;;;;;;5051414;28;20193;-66
2024/01/25 06:17:32;;;;;;;2.83;1.03;;;8.50;99.90;;;;;;5050711;28;20304;-66
2024/01/25 06:19:59;;;;;;;1.37;0.83;;;8.40;99.90;;;;;;5050272;28;20198;-66
2024/01/25 06:22:26;;;;;;;2.83;0.90;;;8.40;99.90;;;;;;5050359;28;20296;-66
2024/01/25 06:24:54;;;;;;;2.50;1.27;;;8.50;99.90;;;;;;5051027;28;20289;-66
2024/01/25 06:27:21;;;;;;;2.83;1.23;;;8.50;99.90;;;;;;5047189;28;20190;-66
2024/01/25 06:29:48;;;;;;;3.83;1.20;;;8.50;99.90;;;;;;5048586;28;20229;-66
2024/01/25 06:32:15;;;;;;;3.80;1.10;;;8.50;99.90;;;;;;5048236;28;20758;-66
2024/01/25 06:34:42;;;;;;;2.00;1.00;;;8.50;99.90;;;;;;5049127;28;20202;-66
2024/01/25 06:37:10;;;;;;;2.27;1.10;;;8.50;99.90;;;;;;5035868;28;20244;-66
2024/01/25 06:39:38;;;;;;;3.37;1.47;;;8.50;99.90;;;;;;5048737;28;20216;-65
2024/01/25 06:42:06;;;;;;;1.90;0.90;;;8.50;99.90;;;;;;5050667;28;20211;-66
2024/01/25 06:44:37;;;;;;;1.90;1.20;;;8.50;99.90;;;;;;5049809;28;20715;-66
2024/01/25 06:47:04;;;;;;;2.60;1.20;;;8.60;99.90;;;;;;5042743;28;20189;-66
2024/01/25 06:49:31;;;;;;;0.97;0.70;;;8.60;99.90;;;;;;5050053;28;20198;-66
2024/01/25 06:51:58;;;;;;;1.00;0.80;;;8.60;99.90;;;;;;5043572;28;20190;-65
2024/01/25 06:54:25;;;;;;;1.70;0.80;;;8.60;99.90;;;;;;5048818;28;20201;-65
2024/01/25 06:56:52;;;;;;;2.87;1.37;;;8.60;99.90;;;;;;5049455;28;20237;-66
2024/01/25 06:59:21;;;;;;;2.37;0.93;;;8.60;99.90;;;;;;5045435;28;20197;-65
2024/01/25 07:01:48;;;;;;;1.30;1.00;;;8.60;99.90;;;;;;5047857;28;20202;-66
2024/01/25 07:04:16;;;;;;;2.07;1.10;;;8.60;99.90;;;;;;5037551;28;20217;-66
2024/01/25 07:06:43;;;;;;;2.73;0.60;;;8.60;99.90;;;;;;5033141;28;20195;-66
2024/01/25 07:09:11;;;;;;;2.90;0.83;;;8.50;99.90;;;;;;5043343;28;20709;-65
2024/01/25 07:11:41;;;;;;;3.20;1.10;;;8.30;99.90;;;;;;5046388;28;20197;-65
2024/01/25 07:14:08;;;;;;;1.83;0.80;;;8.20;99.90;;;;;;5028171;28;20530;-65
2024/01/25 07:16:36;;;;;;;0.93;0.77;;;8.00;99.90;;;;;;5044695;28;20229;-65
2024/01/25 07:19:04;;;;;;;1.20;0.93;;;7.90;99.90;;;;;;5026909;28;20301;-65
2024/01/25 07:21:32;;;;;;;0.80;0.77;;;7.80;99.90;;;;;;5027371;28;20221;-65
2024/01/25 07:24:00;;;;;;;0.50;0.50;;;7.70;99.90;;;;;;5043772;28;20284;-65
2024/01/25 07:26:27;;;;;;;1.07;0.70;;;7.50;99.90;;;;;;5032555;28;20751;-65
2024/01/25 07:28:57;;;;;;;0.60;0.50;;;7.40;99.90;;;;;;5045981;28;20205;-65
2024/01/25 07:31:25;;;;;;;0.50;0.50;;;7.30;99.90;;;;;;5027729;28;20194;-65
2024/01/25 07:33:54;;;;;;;1.80;0.73;;;7.20;99.90;;;;;;5043094;28;20198;-66
2024/01/25 07:36:21;;;;;;;1.17;0.70;;;7.10;99.90;;;;;;5040642;28;20599;-65
2024/01/25 07:38:48;;;;;;;2.97;1.20;;;7.00;99.90;;;;;;5044678;28;20194;-66
2024/01/25 07:41:15;;;;;;;2.50;0.80;;;7.00;99.90;;;;;;5039705;28;20605;-65
2024/01/25 07:43:42;;;;;;;1.17;0.63;;;6.90;99.90;;;;;;5046384;28;20229;-66
2024/01/25 07:46:10;;;;;;;1.80;0.80;;;6.90;99.90;;;;;;5046521;28;20280;-66
2024/01/25 07:48:38;;;;;;;2.63;0.80;;;6.80;99.90;;;;;;5046917;28;20197;-66
2024/01/25 07:51:13;;;;;;;1.23;0.90;;;6.80;99.90;;;;;;5049297;28;20279;-66
2024/01/25 07:53:40;;;;;;;3.23;1.10;;;6.80;99.90;;;;;;5047683;28;20193;-66
2024/01/25 07:56:08;;;;;;;2.17;1.00;;;6.80;99.90;;;;;;5044203;28;20842;-66
2024/01/25 07:58:37;;;;;;;1.77;1.00;;;6.70;99.90;;;;;;5046329;28;20194;-65
2024/01/25 08:01:05;;;;;;;2.73;0.97;;;6.80;99.90;;;;;;5049091;28;20661;-67
2024/01/25 08:03:33;;;;;;;1.07;1.00;;;6.80;99.90;;;;;;5026384;28;20193;-65
2024/01/25 08:06:00;;;;;;;2.40;0.87;;;6.80;99.90;;;;;;5038603;28;20281;-65
2024/01/25 08:08:29;;;;;;;1.73;1.00;;;6.80;99.90;;;;;;5039066;28;20193;-66
2024/01/25 08:10:56;;;;;;;1.53;1.43;;;6.90;99.90;;;;;;5035319;28;20186;-65
2024/01/25 08:13:23;;;;;;;2.40;1.10;;;6.90;99.90;;;;;;5046252;28;20328;-65
2024/01/25 08:15:50;;;;;;;4.47;1.70;;;7.00;99.90;;;;;;5043868;28;20189;-65
2024/01/25 08:18:18;;;;;;;7.37;1.60;;;7.00;99.90;;;;;;5046330;28;20217;-66
2024/01/25 08:20:46;;;;;;;1.90;1.30;;;7.00;99.90;;;;;;5034810;28;20296;-66
2024/01/25 08:23:14;;;;;;;1.93;1.10;;;7.00;99.90;;;;;;5050251;28;20216;-66
2024/01/25 08:25:42;;;;;;;0.90;0.90;;;7.00;99.90;;;;;;5045857;28;20481;-66
2024/01/25 08:28:09;;;;;;;2.63;1.30;;;7.00;99.90;;;;;;5041379;28;20194;-66
2024/01/25 08:30:36;;;;;;;1.27;0.80;;;7.10;99.90;;;;;;5045202;28;20264;-65
2024/01/25 08:33:04;;;;;;;0.90;0.90;;;7.00;99.90;;;;;;5055576;28;20197;-66
2024/01/25 08:35:31;;;;;;;0.83;0.83;;;7.10;99.90;;;;;;5043838;28;20298;-66
2024/01/25 08:37:58;;;;;;;2.37;1.17;;;7.10;99.90;;;;;;5047406;28;20604;-66
2024/01/25 08:40:25;;;;;;;3.33;1.20;;;7.10;99.90;;;;;;5044591;28;20205;-65
2024/01/25 08:42:53;;;;;;;2.83;1.20;;;7.10;99.90;;;;;;5036541;28;20533;-66
2024/01/25 08:45:20;;;;;;;2.90;1.40;;;7.10;99.90;;;;;;5046169;28;20217;-66
2024/01/25 08:47:49;;;;;;;2.67;1.00;;;7.10;99.90;;;;;;5047164;28;20202;-66
2024/01/25 08:50:16;;;;;;;3.67;1.30;;;7.20;99.90;;;;;;5039097;28;20221;-66
2024/01/25 08:52:43;;;;;;;3.77;1.30;;;7.20;99.90;;;;;;5043504;28;20186;-66
2024/01/25 08:55:10;;;;;;;1.67;1.00;;;7.20;99.90;;;;;;5048406;28;20197;-66
2024/01/25 08:57:38;;;;;;;2.23;1.40;;;7.20;99.90;;;;;;5050042;28;20683;-65
2024/01/25 09:00:10;;;;;;;2.13;1.13;;;7.20;99.90;;;;;;5047298;28;20251;-66
2024/01/25 09:02:37;;;;;;;2.30;1.53;;;7.20;99.90;;;;;;5049256;28;20253;-66
2024/01/25 09:05:05;;;;;;;1.77;1.10;;;7.20;99.90;;;;;;5047632;28;20292;-64
2024/01/25 09:07:32;;;;;;;2.00;1.00;;;7.20;99.90;;;;;;5047132;28;20276;-65
2024/01/25 09:09:59;;;;;;;0.97;0.90;;;7.30;99.90;;;;;;5049389;28;20198;-65
2024/01/25 09:12:26;;;;;;;1.73;0.97;;;7.40;99.90;;;;;;5048361;28;20198;-65
2024/01/25 09:14:53;;;;;;;2.10;1.10;;;7.50;99.90;;;;;;5049354;28;20194;-64
2024/01/25 09:17:22;;;;;;;1.93;0.70;;;7.60;99.90;;;;;;5046843;28;20634;-65
2024/01/25 09:19:50;;;;;;;1.00;0.80;;;7.70;99.90;;;;;;5046213;28;20297;-65
2024/01/25 09:22:19;;;;;;;2.43;0.97;;;7.80;99.90;;;;;;5050465;28;20246;-66
2024/01/25 09:24:46;;;;;;;0.80;0.80;;;8.00;99.90;;;;;;5045653;28;20557;-65
2024/01/25 09:27:14;;;;;;;1.83;1.00;;;8.10;99.90;;;;;;5041034;28;20204;-66
2024/01/25 09:29:41;;;;;;;1.53;0.90;;;8.30;99.90;;;;;;5052769;28;20285;-65
2024/01/25 09:32:09;;;;;;;1.43;0.93;;;8.50;99.90;;;;;;5048966;28;20259;-66
2024/01/25 09:34:38;;;;;;;0.70;0.70;;;8.70;99.90;;;;;;5048520;28;20197;-66
2024/01/25 09:37:05;;;;;;;0.70;0.70;;;8.90;99.90;;;;;;5041220;28;20202;-66
2024/01/25 09:39:33;;;;;;;0.60;0.60;;;9.30;99.90;;;;;;5047967;28;20213;-64
2024/01/25 09:42:00;;;;;;;0.90;0.90;;;9.80;99.90;;;;;;5049614;28;20217;-64
2024/01/25 09:44:27;;;;;;;0.57;0.57;;;10.40;99.90;;;;;;5044337;28;20255;-64
2024/01/25 09:46:54;;;;;;;0.60;0.60;;;10.90;99.90;;;;;;5036417;28;20200;-64
2024/01/25 09:49:21;;;;;;;0.90;0.80;;;10.70;99.90;;;;;;5029513;28;20288;-65
2024/01/25 09:51:51;;;;;;;0.90;0.90;;;10.90;99.90;;;;;;5049031;28;20280;-65
2024/01/25 09:54:19;;;;;;;2.13;1.10;;;10.90;99.90;;;;;;5053399;28;20223;-65
2024/01/25 09:56:47;;;;;;;1.00;0.90;;;11.10;99.90;;;;;;5032301;28;20580;-65
2024/01/25 09:59:15;;;;;;;0.97;0.90;;;11.10;99.90;;;;;;5052062;28;20641;-65
2024/01/25 10:01:42;;;;;;;1.37;1.00;;;11.20;99.90;;;;;;5046922;28;20193;-66
2024/01/25 10:04:09;;;;;;;1.97;1.07;;;11.30;99.90;;;;;;5048753;28;20223;-65
2024/01/25 10:06:35;;;;;;;0.70;0.70;;;11.50;99.90;;;;;;5042954;28;20228;-66
2024/01/25 10:09:08;;;;;;;0.93;0.93;;;11.40;99.90;;;;;;5050779;28;20191;-66
2024/01/25 10:11:37;;;;;;;0.80;0.80;;;11.20;99.90;;;;;;5044883;28;20190;-66
2024/01/25 10:14:04;;;;;;;2.30;1.30;;;10.90;99.90;;;;;;5049084;28;20206;-66
2024/01/25 10:16:32;;;;;;;1.80;0.90;;;11.30;99.90;;;;;;5047080;28;20195;-66
2024/01/25 10:18:59;;;;;;;0.83;0.73;;;11.80;99.90;;;;;;5048530;28;20283;-66
2024/01/25 10:21:27;;;;;;;0.87;0.77;;;12.50;99.90;;;;;;5046937;28;20734;-66
2024/01/25 10:23:58;;;;;;;0.87;0.70;;;12.80;99.30;;;;;;5048032;28;20328;-64
2024/01/25 10:26:28;;;;;;;0.87;0.87;;;12.80;98.80;;;;;;5045994;28;20202;-65
2024/01/25 10:28:56;;;;;;;1.60;1.00;;;12.50;98.90;;;;;;5029029;28;20255;-64
2024/01/25 10:31:25;;;;;;;0.80;0.80;;;12.00;97.50;;;;;;5045901;28;20654;-64
2024/01/25 10:33:54;;;;;;;1.83;0.90;;;11.60;98.40;;;;;;5043951;28;20704;-66
2024/01/25 10:36:22;;;;;;;0.83;0.83;;;11.30;98.30;;;;;;5047150;28;20283;-65
2024/01/25 10:38:50;;;;;;;0.70;0.70;;;11.00;98.50;;;;;;5046039;28;20190;-66
2024/01/25 10:41:17;;;;;;;0.80;0.80;;;10.80;98.60;;;;;;5051953;28;20248;-66
2024/01/25 10:43:46;;;;;;;3.73;0.87;;;10.60;99.00;;;;;;5043248;28;20250;-66
2024/01/25 10:46:13;;;;;;;1.10;1.00;;;10.90;99.10;;;;;;5040414;28;20281;-66
2024/01/25 10:48:41;;;;;;;0.67;0.67;;;11.40;99.30;;;;;;5044187;28;20280;-66
2024/01/25 10:51:09;;;;;;;2.20;0.90;;;11.90;98.90;;;;;;5048167;28;20282;-66
2024/01/25 10:53:38;;;;;;;2.40;0.97;;;12.40;97.80;;;;;;5042596;28;20279;-63
2024/01/25 10:56:06;;;;;;;1.90;0.73;;;13.10;97.50;;;;;;5043349;28;20197;-65
2024/01/25 10:58:35;;;;;;;0.90;0.80;;;13.20;96.90;;;;;;5047619;28;20225;-65
2024/01/25 11:01:04;;;;;;;0.70;0.70;;;13.10;96.00;;;;;;5044122;28;20193;-64
2024/01/25 11:03:31;;;;;;;1.50;1.30;;;13.00;96.20;;;;;;5045674;28;20213;-64
2024/01/25 11:06:09;;;;;;;2.77;1.47;;;13.10;96.20;;;;;;5039504;28;20284;-65
2024/01/25 11:08:38;;;;;;;2.80;1.50;;;13.20;95.70;;;;;;5048347;28;20339;-65
2024/01/25 11:11:08;;;;;;;1.60;1.37;;;13.00;94.20;;;;;;5045762;28;20196;-65
2024/01/25 11:13:36;;;;;;;1.83;1.20;;;12.70;93.90;;;;;;5028435;28;20304;-65
2024/01/25 11:16:15;;;;;;;1.20;1.10;;;12.50;94.10;;;;;;5049563;28;20204;-65
2024/01/25 11:18:52;;;;;;;0.90;0.90;;;12.10;94.40;;;;;;5045384;28;20323;-65
2024/01/25 11:21:24;;;;;;;1.03;0.90;;;11.90;95.10;;;;;;5047498;28;20186;-65
2024/01/25 11:24:00;;;;;;;0.83;0.83;;;12.00;95.40;;;;;;5051534;28;20697;-66
2024/01/25 11:26:27;;;;;;;1.03;0.93;;;12.40;95.60;;;;;;5049454;28;20191;-65
2024/01/25 11:28:54;;;;;;;1.30;1.20;;;12.60;94.90;;;;;;5047257;28;20197;-65
2024/01/25 11:31:23;;;;;;;2.20;2.00;;;12.50;94.50;;;;;;5027181;28;20205;-65
2024/01/25 11:33:51;;;;;;;2.60;2.40;;;12.20;93.90;;;;;;5047042;28;20280;-65
2024/01/25 11:36:22;;;;;;;1.97;1.87;;;11.90;94.50;;;;;;5045511;28;20272;-66
2024/01/25 11:38:49;;;;;;;1.83;1.73;;;11.60;94.90;;;;;;5047206;28;20194;-66
2024/01/25 11:41:16;;;;;;;1.70;1.47;;;11.30;95.20;;;;;;5047886;28;20194;-65
2024/01/25 11:43:43;;;;;;;2.20;1.20;;;11.10;95.30;;;;;;5049159;28;20633;-65
2024/01/25 11:46:11;;;;;;;2.53;1.30;;;10.90;95.40;;;;;;5028705;28;20281;-65
2024/01/25 11:48:42;;;;;;;1.80;1.30;;;10.60;95.60;;;;;;5048235;28;20285;-64
2024/01/25 11:51:10;;;;;;;1.23;1.13;;;10.40;95.90;;;;;;5042640;28;20190;-65
2024/01/25 11:53:37;;;;;;;1.30;1.20;;;10.20;96.10;;;;;;5045809;28;20220;-65
2024/01/25 11:56:08;;;;;;;1.63;1.40;;;10.00;96.50;;;;;;5046799;28;20614;-65
2024/01/25 11:58:36;;;;;;;1.60;1.50;;;9.90;97.30;;;;;;5049345;28;20285;-65
2024/01/25 12:01:05;;;;;;;1.40;1.30;;;9.80;97.60;;;;;;5040719;28;20191;-65
2024/01/25 12:03:33;;;;;;;3.57;1.27;;;9.60;97.80;;;;;;5049557;28;20316;-65
2024/01/25 12:06:02;;;;;;;1.87;1.77;;;9.50;98.10;;;;;;5042722;28;20288;-65
2024/01/25 12:08:29;;;;;;;1.80;1.70;;;9.40;97.90;;;;;;5038387;28;20276;-65
2024/01/25 12:11:04;;;;;;;3.23;1.60;;;9.40;97.90;;;;;;5043242;28;20568;-65
2024/01/25 12:13:34;;;;;;;1.23;1.17;;;9.20;97.90;;;;;;5022237;28;20632;-65
2024/01/25 12:16:02;;;;;;;0.93;0.93;;;9.10;98.20;;;;;;5031640;28;20219;-66
2024/01/25 12:18:30;;;;;;;3.40;1.93;;;9.10;98.40;;;;;;5046467;28;20204;-65
2024/01/25 12:21:01;;;;;;;2.90;2.30;;;9.00;98.50;;;;;;5046068;28;20193;-65
2024/01/25 12:23:35;;;;;;;2.77;2.20;;;9.00;98.70;;;;;;5046134;28;20218;-65
2024/01/25 12:26:02;;;;;;;2.33;2.10;;;8.90;98.90;;;;;;5043439;28;20270;-65
2024/01/25 12:28:32;;;;;;;2.93;2.50;;;8.90;99.10;;;;;;5030541;28;20669;-65
2024/01/25 12:31:00;;;;;;;2.37;2.07;;;8.80;99.30;;;;;;5051082;28;20752;-65
2024/01/25 12:33:27;;;;;;;2.20;1.80;;;8.80;99.50;;;;;;5051491;28;20240;-64
2024/01/25 12:35:54;;;;;;;1.60;1.43;;;8.70;99.60;;;;;;5051478;28;20730;-66
2024/01/25 12:38:23;;;;;;;3.67;2.13;;;8.70;99.80;;;;;;5052458;28;20224;-65
2024/01/25 12:40:51;;;;;;;3.80;1.87;;;8.70;99.90;;;;;;5025977;28;20451;-65
2024/01/25 12:43:18;;;;;;;2.70;1.80;;;8.70;99.90;;;;;;5041512;28;20212;-65
2024/01/25 12:45:46;;;;;;;2.60;1.70;;;8.70;99.90;;;;;;5048710;28;20246;-65
2024/01/25 12:48:13;;;;;;;2.07;1.47;;;8.70;99.90;;;;;;5048044;28;20201;-65
2024/01/25 12:50:40;;;;;;;3.37;2.10;;;8.70;99.90;;;;;;5046297;28;20557;-65
2024/01/25 12:53:07;;;;;;;2.93;2.00;;;8.70;99.90;;;;;;5053515;28;20188;-65
2024/01/25 12:55:36;;;;;;;2.03;1.90;;;8.80;99.90;;;;;;5049043;28;20575;-72
2024/01/25 12:58:04;;;;;;;1.60;1.50;;;8.80;99.90;;;;;;5051253;28;20734;-65